createdAt,value
2023-05-19T00:00:37.166Z,969.10
2023-05-19T00:01:37.154Z,969.08
2023-05-19T00:02:37.219Z,969.09
2023-05-19T00:03:37.177Z,969.04
2023-05-19T00:04:37.113Z,969.07
2023-05-19T00:05:37.155Z,969.05
2023-05-19T00:06:37.083Z,969.05
2023-05-19T00:07:37.075Z,969.07
2023-05-19T00:08:37.072Z,969.02
2023-05-19T00:09:37.058Z,969.04
2023-05-19T00:10:37.050Z,969.05
2023-05-19T00:11:37.048Z,969.03
2023-05-19T00:12:37.025Z,969.07
2023-05-19T00:13:37.018Z,969.01
2023-05-19T00:14:36.997Z,969.05
2023-05-19T00:15:37.001Z,969.02
2023-05-19T00:16:36.971Z,968.98
2023-05-19T00:17:36.971Z,969.02
2023-05-19T00:18:36.988Z,968.98
2023-05-19T00:19:36.949Z,968.95
2023-05-19T00:20:36.936Z,968.95
2023-05-19T00:21:36.931Z,968.94
2023-05-19T00:22:36.933Z,968.92
2023-05-19T00:23:36.902Z,968.92
2023-05-19T00:24:36.888Z,968.92
2023-05-19T00:25:36.876Z,968.93
2023-05-19T00:26:36.874Z,968.91
2023-05-19T00:27:36.870Z,968.92
2023-05-19T00:28:36.849Z,968.92
2023-05-19T00:29:36.840Z,968.92
2023-05-19T00:30:36.839Z,968.91
2023-05-19T00:31:36.849Z,968.90
2023-05-19T00:32:36.822Z,968.94
2023-05-19T00:33:36.806Z,968.95
2023-05-19T00:34:36.773Z,968.90
2023-05-19T00:35:36.763Z,968.94
2023-05-19T00:36:36.759Z,968.96
2023-05-19T00:37:36.767Z,968.91
2023-05-19T00:38:36.744Z,968.92
2023-05-19T00:39:36.726Z,968.92
2023-05-19T00:40:36.719Z,968.95
2023-05-19T00:41:36.716Z,968.94
2023-05-19T00:42:36.704Z,968.96
2023-05-19T00:43:36.683Z,968.97
2023-05-19T00:44:36.690Z,968.91
2023-05-19T00:45:36.666Z,968.96
2023-05-19T00:46:36.692Z,968.90
2023-05-19T00:47:36.644Z,968.92
2023-05-19T00:48:36.612Z,968.89
2023-05-19T00:49:36.619Z,968.92
2023-05-19T00:50:36.599Z,968.87
2023-05-19T00:51:36.583Z,968.91
2023-05-19T00:52:36.600Z,968.89
2023-05-19T00:53:36.573Z,968.88
2023-05-19T00:54:36.572Z,968.89
2023-05-19T00:55:36.543Z,968.88
2023-05-19T00:56:36.546Z,968.88
2023-05-19T00:57:36.532Z,968.87
2023-05-19T00:58:36.506Z,968.82
2023-05-19T00:59:36.495Z,968.82
2023-05-19T01:00:36.527Z,968.83
2023-05-19T01:01:36.484Z,968.88
2023-05-19T01:02:36.552Z,968.83
2023-05-19T01:03:36.609Z,968.85
2023-05-19T01:04:36.445Z,968.88
2023-05-19T01:05:36.420Z,968.83
2023-05-19T01:06:36.433Z,968.82
2023-05-19T01:07:36.424Z,968.85
2023-05-19T01:08:36.450Z,968.82
2023-05-19T01:09:36.389Z,968.80
2023-05-19T01:10:36.388Z,968.81
2023-05-19T01:11:36.375Z,968.83
2023-05-19T01:12:36.361Z,968.79
2023-05-19T01:13:36.631Z,968.80
2023-05-19T01:14:36.346Z,968.80
2023-05-19T01:15:36.325Z,968.82
2023-05-19T01:16:36.350Z,968.80
2023-05-19T01:17:36.368Z,968.78
2023-05-19T01:18:36.282Z,968.76
2023-05-19T01:19:36.266Z,968.77
2023-05-19T01:20:36.266Z,968.81
2023-05-19T01:21:36.285Z,968.76
2023-05-19T01:22:36.235Z,968.79
2023-05-19T01:23:36.234Z,968.77
2023-05-19T01:24:36.226Z,968.78
2023-05-19T01:25:36.210Z,968.80
2023-05-19T01:26:36.195Z,968.76
2023-05-19T01:27:36.186Z,968.75
2023-05-19T01:28:36.170Z,968.73
2023-05-19T01:29:36.161Z,968.75
2023-05-19T01:30:36.147Z,968.75
2023-05-19T01:31:36.149Z,968.75
2023-05-19T01:32:36.164Z,968.73
2023-05-19T01:33:36.132Z,968.73
2023-05-19T01:34:36.114Z,968.72
2023-05-19T01:35:36.113Z,968.69
2023-05-19T01:36:36.104Z,968.72
2023-05-19T01:37:36.077Z,968.70
2023-05-19T01:38:36.052Z,968.71
2023-05-19T01:39:36.054Z,968.71
2023-05-19T01:40:36.048Z,968.66
2023-05-19T01:41:36.017Z,968.68
2023-05-19T01:42:36.003Z,968.69
2023-05-19T01:43:35.983Z,968.63
2023-05-19T01:44:36.003Z,968.65
2023-05-19T01:45:35.989Z,968.64
2023-05-19T01:46:36.007Z,968.64
2023-05-19T01:47:36.012Z,968.65
2023-05-19T01:48:35.970Z,968.62
2023-05-19T01:49:35.937Z,968.65
2023-05-19T01:50:35.934Z,968.65
2023-05-19T01:51:35.913Z,968.65
2023-05-19T01:52:35.907Z,968.62
2023-05-19T01:53:35.906Z,968.61
2023-05-19T01:54:35.892Z,968.65
2023-05-19T01:55:35.857Z,968.66
2023-05-19T01:56:35.856Z,968.63
2023-05-19T01:57:35.853Z,968.62
2023-05-19T01:58:35.841Z,968.63
2023-05-19T01:59:35.827Z,968.68
2023-05-19T02:00:35.802Z,968.70
2023-05-19T02:01:35.846Z,968.66
2023-05-19T02:02:35.819Z,968.64
2023-05-19T02:03:35.779Z,968.69
2023-05-19T02:04:35.917Z,968.67
2023-05-19T02:05:35.752Z,968.66
2023-05-19T02:06:35.761Z,968.66
2023-05-19T02:07:35.742Z,968.67
2023-05-19T02:08:35.713Z,968.65
2023-05-19T02:09:35.722Z,968.67
2023-05-19T02:10:35.707Z,968.67
2023-05-19T02:11:35.687Z,968.68
2023-05-19T02:12:35.692Z,968.66
2023-05-19T02:13:35.672Z,968.67
2023-05-19T02:14:35.662Z,968.64
2023-05-19T02:15:35.663Z,968.64
2023-05-19T02:16:35.637Z,968.67
2023-05-19T02:17:35.634Z,968.61
2023-05-19T02:18:35.623Z,968.63
2023-05-19T02:19:35.638Z,968.64
2023-05-19T02:20:35.603Z,968.65
2023-05-19T02:21:35.578Z,968.70
2023-05-19T02:22:35.572Z,968.66
2023-05-19T02:23:35.561Z,968.64
2023-05-19T02:24:35.534Z,968.68
2023-05-19T02:25:35.601Z,968.68
2023-05-19T02:26:35.510Z,968.70
2023-05-19T02:27:35.494Z,968.64
2023-05-19T02:28:35.504Z,968.67
2023-05-19T02:29:35.474Z,968.66
2023-05-19T02:30:35.480Z,968.65
2023-05-19T02:31:35.480Z,968.67
2023-05-19T02:32:35.473Z,968.68
2023-05-19T02:33:35.436Z,968.64
2023-05-19T02:34:35.446Z,968.63
2023-05-19T02:35:35.426Z,968.59
2023-05-19T02:36:35.417Z,968.63
2023-05-19T02:37:35.411Z,968.61
2023-05-19T02:38:35.424Z,968.57
2023-05-19T02:39:35.443Z,968.55
2023-05-19T02:40:35.391Z,968.56
2023-05-19T02:41:35.363Z,968.57
2023-05-19T02:42:35.351Z,968.58
2023-05-19T02:43:35.349Z,968.56
2023-05-19T02:44:35.338Z,968.56
2023-05-19T02:45:35.297Z,968.58
2023-05-19T02:46:35.340Z,968.52
2023-05-19T02:47:37.086Z,968.53
2023-05-19T02:48:35.270Z,968.55
2023-05-19T02:49:35.283Z,968.57
2023-05-19T02:50:35.255Z,968.58
2023-05-19T02:51:35.256Z,968.56
2023-05-19T02:52:35.248Z,968.54
2023-05-19T02:53:35.221Z,968.54
2023-05-19T02:54:35.210Z,968.55
2023-05-19T02:55:35.208Z,968.53
2023-05-19T02:56:35.202Z,968.59
2023-05-19T02:57:35.212Z,968.56
2023-05-19T02:58:35.183Z,968.55
2023-05-19T02:59:35.149Z,968.56
2023-05-19T03:00:35.182Z,968.52
2023-05-19T03:01:35.189Z,968.54
2023-05-19T03:02:35.185Z,968.54
2023-05-19T03:03:35.168Z,968.55
2023-05-19T03:04:35.110Z,968.56
2023-05-19T03:05:35.072Z,968.52
2023-05-19T03:06:35.103Z,968.51
2023-05-19T03:07:35.059Z,968.58
2023-05-19T03:08:35.065Z,968.52
2023-05-19T03:09:35.068Z,968.55
2023-05-19T03:10:35.059Z,968.53
2023-05-19T03:11:35.022Z,968.54
2023-05-19T03:12:35.024Z,968.56
2023-05-19T03:13:35.000Z,968.55
2023-05-19T03:14:35.010Z,968.53
2023-05-19T03:15:34.960Z,968.49
2023-05-19T03:16:35.085Z,968.51
2023-05-19T03:17:35.019Z,968.50
2023-05-19T03:18:34.948Z,968.49
2023-05-19T03:19:34.965Z,968.47
2023-05-19T03:20:34.960Z,968.54
2023-05-19T03:21:34.891Z,968.51
2023-05-19T03:22:34.907Z,968.54
2023-05-19T03:23:34.888Z,968.53
2023-05-19T03:24:34.894Z,968.50
2023-05-19T03:25:34.868Z,968.53
2023-05-19T03:26:34.867Z,968.53
2023-05-19T03:27:34.860Z,968.56
2023-05-19T03:28:34.852Z,968.59
2023-05-19T03:29:34.836Z,968.57
2023-05-19T03:30:34.857Z,968.58
2023-05-19T03:31:34.807Z,968.62
2023-05-19T03:32:34.886Z,968.57
2023-05-19T03:33:34.830Z,968.61
2023-05-19T03:34:34.768Z,968.64
2023-05-19T03:35:34.790Z,968.58
2023-05-19T03:36:34.746Z,968.64
2023-05-19T03:37:34.745Z,968.61
2023-05-19T03:38:34.754Z,968.60
2023-05-19T03:39:34.695Z,968.59
2023-05-19T03:40:34.857Z,968.59
2023-05-19T03:41:34.688Z,968.60
2023-05-19T03:42:34.669Z,968.61
2023-05-19T03:43:34.680Z,968.60
2023-05-19T03:44:34.680Z,968.60
2023-05-19T03:45:34.675Z,968.61
2023-05-19T03:46:34.642Z,968.65
2023-05-19T03:47:34.651Z,968.62
2023-05-19T03:48:34.610Z,968.61
2023-05-19T03:49:34.612Z,968.68
2023-05-19T03:50:34.680Z,968.63
2023-05-19T03:51:34.577Z,968.62
2023-05-19T03:52:34.575Z,968.63
2023-05-19T03:53:34.570Z,968.66
2023-05-19T03:54:34.560Z,968.70
2023-05-19T03:55:34.532Z,968.67
2023-05-19T03:56:34.531Z,968.69
2023-05-19T03:57:34.524Z,968.69
2023-05-19T03:58:34.507Z,968.69
2023-05-19T03:59:34.480Z,968.73
2023-05-19T04:00:34.894Z,968.71
2023-05-19T04:01:34.481Z,968.71
2023-05-19T04:02:34.494Z,968.68
2023-05-19T04:03:34.482Z,968.68
2023-05-19T04:04:34.534Z,968.67
2023-05-19T04:05:34.419Z,968.70
2023-05-19T04:06:34.411Z,968.69
2023-05-19T04:07:34.399Z,968.73
2023-05-19T04:08:34.388Z,968.73
2023-05-19T04:09:34.407Z,968.74
2023-05-19T04:10:34.512Z,968.74
2023-05-19T04:11:34.340Z,968.76
2023-05-19T04:12:34.367Z,968.77
2023-05-19T04:13:34.337Z,968.78
2023-05-19T04:14:34.335Z,968.74
2023-05-19T04:15:34.341Z,968.77
2023-05-19T04:16:34.306Z,968.75
2023-05-19T04:17:34.314Z,968.72
2023-05-19T04:18:34.266Z,968.73
2023-05-19T04:19:34.273Z,968.77
2023-05-19T04:20:34.509Z,968.76
2023-05-19T04:21:34.239Z,968.78
2023-05-19T04:22:34.222Z,968.77
2023-05-19T04:23:34.218Z,968.75
2023-05-19T04:24:34.223Z,968.78
2023-05-19T04:25:34.212Z,968.74
2023-05-19T04:26:34.188Z,968.74
2023-05-19T04:27:34.172Z,968.76
2023-05-19T04:28:34.186Z,968.75
2023-05-19T04:29:34.165Z,968.79
2023-05-19T04:30:34.245Z,968.77
2023-05-19T04:31:34.237Z,968.74
2023-05-19T04:32:34.156Z,968.78
2023-05-19T04:33:34.109Z,968.76
2023-05-19T04:34:34.100Z,968.78
2023-05-19T04:35:34.121Z,968.78
2023-05-19T04:36:34.208Z,968.81
2023-05-19T04:37:34.056Z,968.78
2023-05-19T04:38:34.055Z,968.79
2023-05-19T04:39:34.045Z,968.81
2023-05-19T04:40:34.235Z,968.75
2023-05-19T04:41:34.011Z,968.75
2023-05-19T04:42:34.019Z,968.74
2023-05-19T04:43:33.983Z,968.78
2023-05-19T04:44:33.981Z,968.72
2023-05-19T04:45:33.975Z,968.75
2023-05-19T04:46:34.056Z,968.72
2023-05-19T04:47:33.946Z,968.73
2023-05-19T04:48:33.931Z,968.73
2023-05-19T04:49:33.930Z,968.73
2023-05-19T04:50:34.139Z,968.79
2023-05-19T04:51:33.909Z,968.76
2023-05-19T04:52:33.927Z,968.74
2023-05-19T04:53:33.893Z,968.73
2023-05-19T04:54:33.874Z,968.73
2023-05-19T04:55:33.870Z,968.76
2023-05-19T04:56:33.858Z,968.73
2023-05-19T04:57:33.842Z,968.70
2023-05-19T04:58:33.846Z,968.73
2023-05-19T04:59:33.818Z,968.72
2023-05-19T05:00:34.014Z,968.76
2023-05-19T05:01:33.877Z,968.73
2023-05-19T05:02:33.809Z,968.75
2023-05-19T05:03:33.895Z,968.74
2023-05-19T05:04:33.762Z,968.77
2023-05-19T05:05:33.739Z,968.76
2023-05-19T05:06:33.762Z,968.77
2023-05-19T05:07:33.730Z,968.75
2023-05-19T05:08:33.707Z,968.76
2023-05-19T05:09:33.703Z,968.80
2023-05-19T05:10:33.884Z,968.78
2023-05-19T05:11:33.681Z,968.79
2023-05-19T05:12:33.660Z,968.77
2023-05-19T05:13:33.663Z,968.77
2023-05-19T05:14:33.640Z,968.74
2023-05-19T05:15:33.646Z,968.77
2023-05-19T05:16:33.681Z,968.76
2023-05-19T05:17:33.660Z,968.76
2023-05-19T05:18:33.613Z,968.75
2023-05-19T05:19:33.696Z,968.75
2023-05-19T05:20:33.743Z,968.71
2023-05-19T05:21:33.573Z,968.70
2023-05-19T05:22:33.583Z,968.73
2023-05-19T05:23:33.543Z,968.68
2023-05-19T05:24:33.531Z,968.64
2023-05-19T05:25:33.660Z,968.62
2023-05-19T05:26:33.528Z,968.63
2023-05-19T05:27:33.519Z,968.61
2023-05-19T05:28:33.473Z,968.64
2023-05-19T05:29:33.495Z,968.56
2023-05-19T05:30:33.461Z,968.62
2023-05-19T05:31:33.472Z,968.61
2023-05-19T05:32:33.529Z,968.63
2023-05-19T05:33:33.473Z,968.65
2023-05-19T05:34:33.422Z,968.67
2023-05-19T05:35:33.621Z,968.65
2023-05-19T05:36:33.389Z,968.65
2023-05-19T05:37:33.399Z,968.65
2023-05-19T05:38:33.391Z,968.64
2023-05-19T05:39:33.370Z,968.60
2023-05-19T05:40:33.373Z,968.64
2023-05-19T05:41:33.358Z,968.63
2023-05-19T05:42:33.348Z,968.61
2023-05-19T05:43:33.319Z,968.60
2023-05-19T05:44:33.309Z,968.57
2023-05-19T05:45:33.578Z,968.58
2023-05-19T05:46:33.362Z,968.61
2023-05-19T05:47:33.305Z,968.63
2023-05-19T05:48:33.263Z,968.63
2023-05-19T05:49:33.262Z,968.66
2023-05-19T05:50:33.242Z,968.65
2023-05-19T05:51:33.260Z,968.68
2023-05-19T05:52:33.218Z,968.66
2023-05-19T05:53:33.221Z,968.64
2023-05-19T05:54:33.258Z,968.70
2023-05-19T05:55:33.349Z,968.66
2023-05-19T05:56:33.192Z,968.68
2023-05-19T05:57:33.173Z,968.67
2023-05-19T05:58:33.169Z,968.69
2023-05-19T05:59:33.141Z,968.67
2023-05-19T06:00:33.376Z,968.65
2023-05-19T06:01:35.452Z,968.64
2023-05-19T06:02:33.159Z,968.62
2023-05-19T06:03:33.112Z,968.63
2023-05-19T06:04:33.071Z,968.62
2023-05-19T06:05:33.116Z,968.58
2023-05-19T06:06:33.060Z,968.56
2023-05-19T06:07:33.077Z,968.57
2023-05-19T06:08:33.037Z,968.57
2023-05-19T06:09:33.047Z,968.61
2023-05-19T06:10:33.416Z,968.58
2023-05-19T06:11:33.040Z,968.57
2023-05-19T06:12:32.992Z,968.55
2023-05-19T06:13:32.985Z,968.57
2023-05-19T06:14:32.963Z,968.56
2023-05-19T06:15:33.032Z,968.51
2023-05-19T06:16:33.074Z,968.52
2023-05-19T06:17:33.019Z,968.52
2023-05-19T06:18:32.946Z,968.55
2023-05-19T06:19:32.926Z,968.55
2023-05-19T06:20:33.122Z,968.52
2023-05-19T06:21:32.917Z,968.42
2023-05-19T06:22:32.899Z,968.45
2023-05-19T06:23:32.888Z,968.43
2023-05-19T06:24:32.853Z,968.50
2023-05-19T06:25:33.064Z,968.48
2023-05-19T06:26:32.849Z,968.44
2023-05-19T06:27:34.720Z,968.46
2023-05-19T06:28:32.828Z,968.48
2023-05-19T06:29:32.801Z,968.48
2023-05-19T06:30:33.022Z,968.52
2023-05-19T06:31:32.843Z,968.48
2023-05-19T06:32:32.806Z,968.47
2023-05-19T06:33:32.774Z,968.50
2023-05-19T06:34:32.768Z,968.52
2023-05-19T06:35:32.757Z,968.51
2023-05-19T06:36:32.740Z,968.49
2023-05-19T06:37:32.803Z,968.51
2023-05-19T06:38:32.709Z,968.46
2023-05-19T06:39:32.713Z,968.50
2023-05-19T06:40:32.903Z,968.52
2023-05-19T06:41:32.691Z,968.52
2023-05-19T06:42:32.689Z,968.50
2023-05-19T06:43:32.679Z,968.53
2023-05-19T06:44:32.649Z,968.53
2023-05-19T06:45:32.646Z,968.53
2023-05-19T06:46:32.696Z,968.52
2023-05-19T06:47:32.685Z,968.57
2023-05-19T06:48:32.612Z,968.54
2023-05-19T06:49:32.607Z,968.64
2023-05-19T06:50:32.773Z,968.64
2023-05-19T06:51:32.601Z,968.58
2023-05-19T06:52:32.543Z,968.58
2023-05-19T06:53:32.544Z,968.63
2023-05-19T06:54:32.546Z,968.56
2023-05-19T06:55:33.479Z,968.53
2023-05-19T06:56:32.515Z,968.51
2023-05-19T06:57:32.517Z,968.58
2023-05-19T06:58:32.501Z,968.57
2023-05-19T06:59:32.501Z,968.59
2023-05-19T07:00:32.640Z,968.58
2023-05-19T07:01:32.491Z,968.54
2023-05-19T07:02:32.605Z,968.56
2023-05-19T07:03:32.522Z,968.58
2023-05-19T07:04:32.424Z,968.57
2023-05-19T07:05:32.424Z,968.56
2023-05-19T07:06:32.397Z,968.55
2023-05-19T07:07:32.390Z,968.55
2023-05-19T07:08:32.364Z,968.59
2023-05-19T07:09:32.373Z,968.58
2023-05-19T07:10:32.515Z,968.62
2023-05-19T07:11:32.357Z,968.56
2023-05-19T07:12:32.451Z,968.57
2023-05-19T07:13:32.337Z,968.59
2023-05-19T07:14:32.308Z,968.61
2023-05-19T07:15:32.306Z,968.59
2023-05-19T07:16:32.378Z,968.60
2023-05-19T07:17:32.308Z,968.63
2023-05-19T07:18:32.278Z,968.65
2023-05-19T07:19:32.342Z,968.64
2023-05-19T07:20:32.461Z,968.71
2023-05-19T07:21:32.246Z,968.75
2023-05-19T07:22:32.228Z,968.64
2023-05-19T07:23:32.201Z,968.69
2023-05-19T07:24:32.225Z,968.67
2023-05-19T07:25:32.183Z,968.64
2023-05-19T07:26:32.186Z,968.62
2023-05-19T07:27:32.173Z,968.58
2023-05-19T07:28:32.160Z,968.59
2023-05-19T07:29:32.154Z,968.61
2023-05-19T07:30:32.363Z,968.60
2023-05-19T07:31:32.161Z,968.56
2023-05-19T07:32:32.170Z,968.56
2023-05-19T07:33:32.109Z,968.61
2023-05-19T07:34:32.097Z,968.55
2023-05-19T07:35:32.097Z,968.56
2023-05-19T07:36:32.065Z,968.55
2023-05-19T07:37:32.068Z,968.55
2023-05-19T07:38:32.047Z,968.54
2023-05-19T07:39:32.050Z,968.50
2023-05-19T07:40:32.311Z,968.48
2023-05-19T07:41:33.217Z,968.50
2023-05-19T07:42:32.013Z,968.51
2023-05-19T07:43:31.984Z,968.50
2023-05-19T07:44:31.989Z,968.46
2023-05-19T07:45:32.027Z,968.51
2023-05-19T07:46:32.039Z,968.51
2023-05-19T07:47:32.000Z,968.47
2023-05-19T07:48:31.932Z,968.48
2023-05-19T07:49:31.906Z,968.45
2023-05-19T07:50:32.207Z,968.48
2023-05-19T07:51:31.911Z,968.50
2023-05-19T07:52:31.909Z,968.42
2023-05-19T07:53:31.891Z,968.42
2023-05-19T07:54:31.856Z,968.41
2023-05-19T07:55:31.863Z,968.35
2023-05-19T07:56:31.846Z,968.35
2023-05-19T07:57:31.842Z,968.32
2023-05-19T07:58:31.816Z,968.33
2023-05-19T07:59:31.809Z,968.25
2023-05-19T08:00:32.144Z,968.30
2023-05-19T08:01:31.798Z,968.31
2023-05-19T08:02:31.798Z,968.33
2023-05-19T08:03:31.911Z,968.30
2023-05-19T08:04:31.788Z,968.33
2023-05-19T08:05:31.757Z,968.36
2023-05-19T08:06:31.735Z,968.31
2023-05-19T08:07:31.742Z,968.32
2023-05-19T08:08:31.706Z,968.31
2023-05-19T08:09:31.707Z,968.27
2023-05-19T08:10:31.919Z,968.27
2023-05-19T08:11:31.686Z,968.33
2023-05-19T08:12:31.657Z,968.31
2023-05-19T08:13:31.664Z,968.35
2023-05-19T08:14:31.667Z,968.32
2023-05-19T08:15:31.685Z,968.30
2023-05-19T08:16:31.650Z,968.33
2023-05-19T08:17:31.702Z,968.32
2023-05-19T08:18:31.634Z,968.32
2023-05-19T08:19:31.658Z,968.27
2023-05-19T08:20:31.845Z,968.24
2023-05-19T08:21:31.589Z,968.28
2023-05-19T08:22:31.548Z,968.28
2023-05-19T08:23:31.555Z,968.26
2023-05-19T08:24:31.525Z,968.24
2023-05-19T08:25:31.528Z,968.28
2023-05-19T08:26:31.489Z,968.26
2023-05-19T08:27:31.509Z,968.29
2023-05-19T08:28:31.508Z,968.25
2023-05-19T08:29:31.476Z,968.27
2023-05-19T08:30:31.678Z,968.21
2023-05-19T08:31:31.606Z,968.23
2023-05-19T08:32:31.476Z,968.27
2023-05-19T08:33:31.503Z,968.23
2023-05-19T08:34:31.427Z,968.24
2023-05-19T08:35:31.414Z,968.20
2023-05-19T08:36:31.406Z,968.18
2023-05-19T08:37:34.002Z,968.21
2023-05-19T08:38:31.381Z,968.16
2023-05-19T08:39:31.373Z,968.16
2023-05-19T08:40:31.727Z,968.14
2023-05-19T08:41:31.346Z,968.19
2023-05-19T08:42:31.344Z,968.16
2023-05-19T08:43:31.334Z,968.13
2023-05-19T08:44:31.314Z,968.17
2023-05-19T08:45:31.503Z,968.12
2023-05-19T08:46:31.351Z,968.11
2023-05-19T08:47:31.326Z,968.09
2023-05-19T08:48:31.271Z,968.07
2023-05-19T08:49:31.251Z,968.17
2023-05-19T08:50:31.377Z,968.12
2023-05-19T08:51:31.255Z,968.11
2023-05-19T08:52:31.220Z,968.11
2023-05-19T08:53:34.215Z,968.06
2023-05-19T08:54:31.191Z,968.05
2023-05-19T08:55:31.558Z,968.04
2023-05-19T08:56:31.169Z,968.05
2023-05-19T08:57:31.151Z,967.98
2023-05-19T08:58:31.150Z,968.07
2023-05-19T08:59:31.155Z,968.08
2023-05-19T09:00:31.633Z,968.07
2023-05-19T09:01:31.227Z,968.11
2023-05-19T09:02:31.142Z,968.05
2023-05-19T09:03:31.169Z,968.02
2023-05-19T09:04:31.165Z,968.10
2023-05-19T09:05:31.319Z,968.10
2023-05-19T09:06:31.067Z,968.08
2023-05-19T09:07:31.043Z,968.07
2023-05-19T09:08:31.028Z,968.07
2023-05-19T09:09:31.042Z,968.13
2023-05-19T09:10:31.030Z,968.13
2023-05-19T09:11:31.016Z,968.11
2023-05-19T09:12:31.002Z,968.21
2023-05-19T09:13:30.992Z,968.14
2023-05-19T09:14:30.965Z,968.14
2023-05-19T09:15:31.113Z,968.12
2023-05-19T09:16:30.992Z,968.10
2023-05-19T09:17:30.983Z,968.11
2023-05-19T09:18:30.939Z,968.17
2023-05-19T09:19:31.042Z,968.17
2023-05-19T09:20:30.920Z,968.17
2023-05-19T09:21:30.924Z,968.18
2023-05-19T09:22:30.888Z,968.08
2023-05-19T09:23:30.857Z,968.07
2023-05-19T09:24:30.882Z,968.07
2023-05-19T09:25:30.978Z,968.07
2023-05-19T09:26:30.857Z,968.03
2023-05-19T09:27:30.838Z,968.03
2023-05-19T09:28:30.809Z,968.01
2023-05-19T09:29:30.806Z,968.10
2023-05-19T09:30:30.814Z,968.06
2023-05-19T09:31:30.820Z,968.04
2023-05-19T09:32:30.842Z,968.05
2023-05-19T09:33:31.133Z,967.99
2023-05-19T09:34:30.766Z,968.07
2023-05-19T09:35:30.887Z,967.98
2023-05-19T09:36:30.779Z,968.00
2023-05-19T09:37:30.739Z,967.99
2023-05-19T09:38:30.714Z,967.99
2023-05-19T09:39:30.698Z,968.01
2023-05-19T09:40:30.690Z,967.98
2023-05-19T09:41:30.681Z,967.95
2023-05-19T09:42:30.681Z,967.92
2023-05-19T09:43:30.638Z,967.94
2023-05-19T09:44:30.692Z,967.94
2023-05-19T09:45:30.670Z,967.92
2023-05-19T09:46:30.629Z,967.97
2023-05-19T09:47:30.658Z,967.95
2023-05-19T09:48:30.610Z,968.00
2023-05-19T09:49:30.565Z,967.99
2023-05-19T09:50:30.573Z,967.97
2023-05-19T09:51:30.547Z,968.01
2023-05-19T09:52:30.553Z,967.99
2023-05-19T09:53:30.532Z,968.00
2023-05-19T09:54:30.536Z,967.98
2023-05-19T09:55:31.108Z,968.02
2023-05-19T09:56:30.521Z,968.03
2023-05-19T09:57:30.490Z,967.99
2023-05-19T09:58:30.491Z,968.02
2023-05-19T09:59:32.992Z,968.02
2023-05-19T10:00:30.633Z,968.00
2023-05-19T10:01:30.493Z,968.04
2023-05-19T10:02:30.494Z,968.05
2023-05-19T10:03:30.454Z,968.03
2023-05-19T10:04:30.484Z,968.05
2023-05-19T10:05:30.445Z,968.11
2023-05-19T10:06:30.413Z,968.04
2023-05-19T10:07:30.386Z,968.06
2023-05-19T10:08:30.634Z,968.01
2023-05-19T10:09:30.357Z,968.05
2023-05-19T10:10:30.359Z,968.00
2023-05-19T10:11:30.330Z,968.00
2023-05-19T10:12:30.320Z,968.04
2023-05-19T10:13:30.314Z,968.05
2023-05-19T10:14:30.352Z,968.03
2023-05-19T10:15:30.534Z,967.98
2023-05-19T10:16:30.315Z,967.98
2023-05-19T10:17:30.279Z,967.96
2023-05-19T10:18:30.276Z,967.96
2023-05-19T10:19:30.313Z,967.96
2023-05-19T10:20:30.500Z,967.97
2023-05-19T10:21:30.247Z,967.89
2023-05-19T10:22:30.227Z,967.98
2023-05-19T10:23:30.224Z,967.96
2023-05-19T10:24:30.207Z,967.99
2023-05-19T10:25:30.180Z,967.95
2023-05-19T10:26:30.161Z,967.98
2023-05-19T10:27:30.161Z,967.96
2023-05-19T10:28:30.152Z,967.87
2023-05-19T10:29:30.127Z,967.87
2023-05-19T10:30:30.134Z,967.88
2023-05-19T10:31:30.153Z,967.89
2023-05-19T10:32:30.197Z,967.88
2023-05-19T10:33:30.080Z,967.80
2023-05-19T10:34:30.149Z,967.83
2023-05-19T10:35:31.098Z,967.85
2023-05-19T10:36:30.083Z,967.88
2023-05-19T10:37:30.047Z,967.89
2023-05-19T10:38:30.051Z,967.93
2023-05-19T10:39:30.023Z,967.91
2023-05-19T10:40:30.050Z,967.90
2023-05-19T10:41:30.000Z,967.87
2023-05-19T10:42:29.997Z,967.92
2023-05-19T10:43:29.967Z,967.86
2023-05-19T10:44:29.958Z,967.86
2023-05-19T10:45:29.942Z,967.82
2023-05-19T10:46:29.981Z,967.80
2023-05-19T10:47:29.929Z,967.81
2023-05-19T10:48:29.932Z,967.85
2023-05-19T10:49:29.896Z,967.79
2023-05-19T10:50:29.909Z,967.80
2023-05-19T10:51:29.915Z,967.79
2023-05-19T10:52:29.880Z,967.85
2023-05-19T10:53:29.851Z,967.83
2023-05-19T10:54:29.861Z,967.82
2023-05-19T10:55:29.868Z,967.82
2023-05-19T10:56:29.841Z,967.81
2023-05-19T10:57:29.836Z,967.84
2023-05-19T10:58:29.802Z,967.83
2023-05-19T10:59:29.811Z,967.84
2023-05-19T11:00:29.805Z,967.82
2023-05-19T11:01:29.790Z,967.90
2023-05-19T11:02:29.790Z,967.89
2023-05-19T11:04:29.828Z,967.91
2023-05-19T11:05:29.754Z,967.92
2023-05-19T11:06:29.761Z,967.95
2023-05-19T11:07:29.714Z,967.89
2023-05-19T11:08:29.722Z,967.89
2023-05-19T11:09:39.728Z,967.86
2023-05-19T11:10:29.694Z,967.88
2023-05-19T11:11:29.669Z,967.93
2023-05-19T11:12:29.643Z,967.92
2023-05-19T11:13:29.654Z,967.91
2023-05-19T11:14:29.657Z,967.95
2023-05-19T11:15:29.649Z,967.98
2023-05-19T11:16:29.706Z,967.98
2023-05-19T11:17:29.649Z,967.95
2023-05-19T11:18:29.594Z,967.97
2023-05-19T11:19:29.755Z,967.95
2023-05-19T11:20:29.572Z,967.95
2023-05-19T11:21:29.671Z,967.96
2023-05-19T11:22:29.577Z,967.88
2023-05-19T11:23:29.589Z,967.91
2023-05-19T11:24:29.518Z,967.87
2023-05-19T11:25:29.510Z,967.90
2023-05-19T11:26:29.513Z,967.89
2023-05-19T11:27:29.475Z,967.96
2023-05-19T11:28:29.487Z,967.94
2023-05-19T11:29:29.469Z,967.93
2023-05-19T11:30:29.474Z,967.99
2023-05-19T11:31:29.496Z,967.97
2023-05-19T11:32:29.604Z,968.00
2023-05-19T11:33:29.416Z,967.93
2023-05-19T11:34:29.445Z,967.93
2023-05-19T11:35:29.402Z,967.98
2023-05-19T11:36:29.389Z,967.98
2023-05-19T11:37:29.386Z,968.02
2023-05-19T11:38:29.357Z,968.00
2023-05-19T11:39:29.356Z,968.05
2023-05-19T11:40:29.357Z,968.00
2023-05-19T11:41:29.347Z,968.01
2023-05-19T11:42:29.309Z,967.95
2023-05-19T11:43:29.298Z,967.94
2023-05-19T11:44:29.288Z,967.89
2023-05-19T11:45:29.298Z,967.92
2023-05-19T11:46:29.359Z,967.89
2023-05-19T11:47:29.909Z,967.93
2023-05-19T11:48:29.286Z,967.93
2023-05-19T11:49:29.231Z,967.89
2023-05-19T11:50:29.243Z,967.87
2023-05-19T11:51:29.237Z,967.91
2023-05-19T11:52:29.218Z,967.87
2023-05-19T11:53:29.203Z,967.86
2023-05-19T11:54:29.200Z,967.89
2023-05-19T11:55:29.182Z,967.86
2023-05-19T11:56:29.172Z,967.90
2023-05-19T11:57:29.180Z,967.87
2023-05-19T11:58:29.164Z,967.84
2023-05-19T11:59:29.126Z,967.85
2023-05-19T12:00:29.112Z,967.86
2023-05-19T12:01:29.104Z,967.87
2023-05-19T12:02:29.157Z,967.89
2023-05-19T12:03:29.178Z,967.95
2023-05-19T12:04:29.129Z,967.90
2023-05-19T12:05:29.096Z,967.91
2023-05-19T12:06:29.099Z,967.91
2023-05-19T12:07:29.040Z,967.95
2023-05-19T12:08:29.032Z,967.97
2023-05-19T12:09:29.014Z,968.00
2023-05-19T12:10:29.021Z,967.97
2023-05-19T12:11:28.996Z,967.96
2023-05-19T12:12:28.974Z,967.99
2023-05-19T12:13:28.967Z,967.94
2023-05-19T12:14:28.967Z,967.97
2023-05-19T12:15:28.962Z,967.99
2023-05-19T12:16:30.576Z,967.98
2023-05-19T12:17:28.943Z,967.97
2023-05-19T12:18:28.913Z,967.94
2023-05-19T12:19:29.013Z,967.93
2023-05-19T12:20:28.911Z,967.95
2023-05-19T12:21:34.322Z,967.91
2023-05-19T12:22:28.868Z,967.97
2023-05-19T12:23:28.861Z,967.96
2023-05-19T12:24:28.876Z,967.88
2023-05-19T12:25:28.839Z,967.94
2023-05-19T12:26:28.829Z,967.96
2023-05-19T12:27:28.831Z,967.94
2023-05-19T12:28:28.803Z,967.90
2023-05-19T12:29:28.850Z,967.91